Time;durP1;ratioP1;P1;durP2;ratioP2;P2;SDS_P1;SDS_P2;PMS_P1;PMS_P2;Temp;Humidity;BMP_temperature;BMP_pressure;BME280_temperature;BME280_humidity;BME280_pressure;Samples;Min_cycle;Max_cycle;Signal;HPM_P1;HPM_P2
2023/04/15 00:02:21;;;;;;;25.87;13.77;;;9.70;99.90;;;;;;5056822;28;20464;-61
2023/04/15 00:04:48;;;;;;;20.93;14.30;;;9.80;99.90;;;;;;5057446;28;20436;-57
2023/04/15 00:07:17;;;;;;;24.27;14.20;;;9.80;99.90;;;;;;5057446;28;20487;-62
2023/04/15 00:09:44;;;;;;;20.33;13.50;;;9.80;99.90;;;;;;5057292;28;20467;-59
2023/04/15 00:12:12;;;;;;;23.57;12.73;;;9.80;99.90;;;;;;5057516;28;20440;-61
2023/04/15 00:14:39;;;;;;;25.83;14.80;;;9.80;99.90;;;;;;5057284;28;20467;-61
2023/04/15 00:17:06;;;;;;;34.47;15.17;;;9.70;99.90;;;;;;5057325;28;20491;-62
2023/04/15 00:19:33;;;;;;;25.97;13.10;;;9.70;99.90;;;;;;5056637;28;20466;-60
2023/04/15 00:22:00;;;;;;;21.17;11.93;;;9.70;99.90;;;;;;5056546;28;20444;-59
2023/04/15 00:24:30;;;;;;;22.33;14.40;;;9.70;99.90;;;;;;5056708;28;20444;-62
2023/04/15 00:26:57;;;;;;;23.90;14.23;;;9.70;99.90;;;;;;5056036;28;20490;-58
2023/04/15 00:29:24;;;;;;;25.07;14.67;;;9.70;99.90;;;;;;5056643;28;20424;-61
2023/04/15 00:31:51;;;;;;;27.20;15.03;;;9.70;99.90;;;;;;5056697;28;20468;-63
2023/04/15 00:34:18;;;;;;;25.03;12.80;;;9.70;99.90;;;;;;5056748;28;20447;-61
2023/04/15 00:36:45;;;;;;;25.80;14.53;;;9.70;99.90;;;;;;5056768;28;20472;-60
2023/04/15 00:39:12;;;;;;;22.90;14.87;;;9.70;99.90;;;;;;5057052;28;20443;-61
2023/04/15 00:41:40;;;;;;;23.27;15.27;;;9.70;99.90;;;;;;5056586;28;20451;-61
2023/04/15 00:44:08;;;;;;;28.67;14.80;;;9.80;99.90;;;;;;5056186;28;20979;-61
2023/04/15 00:46:37;;;;;;;25.53;15.07;;;9.80;99.90;;;;;;5056371;28;20432;-59
2023/04/15 00:49:05;;;;;;;28.07;15.10;;;9.80;99.90;;;;;;5055785;28;20436;-60
2023/04/15 00:51:34;;;;;;;29.40;15.33;;;9.80;99.90;;;;;;5056494;28;20451;-60
2023/04/15 00:54:02;;;;;;;29.23;16.80;;;9.80;99.90;;;;;;5055962;28;20479;-61
2023/04/15 00:56:30;;;;;;;25.97;14.30;;;9.80;99.90;;;;;;5055759;28;20499;-61
2023/04/15 00:58:59;;;;;;;31.07;15.97;;;9.80;99.90;;;;;;5055935;28;20448;-57
2023/04/15 01:01:27;;;;;;;27.40;15.60;;;9.80;99.90;;;;;;5055647;28;20508;-60
2023/04/15 01:03:57;;;;;;;24.67;14.83;;;9.80;99.90;;;;;;5056194;28;20421;-61
2023/04/15 01:06:25;;;;;;;26.87;15.40;;;9.80;99.90;;;;;;5056067;28;20555;-60
2023/04/15 01:08:52;;;;;;;28.53;15.47;;;9.80;99.90;;;;;;5055441;28;20472;-62
2023/04/15 01:11:20;;;;;;;27.73;17.53;;;9.80;99.90;;;;;;5055473;28;20450;-60
2023/04/15 01:13:47;;;;;;;24.00;14.63;;;9.80;99.90;;;;;;5055648;28;20452;-61
2023/04/15 01:16:16;;;;;;;25.33;13.80;;;9.80;99.90;;;;;;5055862;28;20476;-62
2023/04/15 01:18:43;;;;;;;26.90;16.03;;;9.80;99.90;;;;;;5055885;28;20460;-60
2023/04/15 01:21:10;;;;;;;29.97;15.10;;;9.80;99.90;;;;;;5055658;28;20522;-59
2023/04/15 01:23:38;;;;;;;25.50;15.73;;;9.80;99.90;;;;;;5055772;28;20444;-59
2023/04/15 01:26:07;;;;;;;37.30;15.63;;;9.80;99.90;;;;;;5056115;28;20431;-60
2023/04/15 01:28:35;;;;;;;28.77;16.10;;;9.80;99.90;;;;;;5055350;28;20472;-62
2023/04/15 01:31:13;;;;;;;40.53;18.17;;;9.80;99.90;;;;;;5055536;28;20444;-61
2023/04/15 01:33:42;;;;;;;28.37;16.07;;;9.80;99.90;;;;;;5055822;28;20456;-62
2023/04/15 01:36:10;;;;;;;26.93;15.67;;;9.80;99.90;;;;;;5055740;28;20502;-61
2023/04/15 01:38:37;;;;;;;30.73;15.97;;;9.80;99.90;;;;;;5055455;28;20444;-62
2023/04/15 01:41:07;;;;;;;35.20;17.70;;;9.80;99.90;;;;;;5055487;28;20423;-59
2023/04/15 01:43:33;;;;;;;42.20;23.60;;;9.80;99.90;;;;;;5055671;28;20474;-61
2023/04/15 01:46:00;;;;;;;27.40;15.20;;;9.80;99.90;;;;;;5058705;28;20455;-60
2023/04/15 01:48:30;;;;;;;29.20;16.13;;;9.80;99.90;;;;;;5059783;28;20448;-61
2023/04/15 01:50:57;;;;;;;33.30;17.37;;;9.80;99.90;;;;;;5059459;28;20479;-60
2023/04/15 01:53:24;;;;;;;25.70;16.20;;;9.80;99.90;;;;;;5059518;28;20427;-60
2023/04/15 01:55:52;;;;;;;29.17;16.73;;;9.90;99.90;;;;;;5058919;28;20474;-59
2023/04/15 01:58:21;;;;;;;30.90;15.67;;;9.80;99.90;;;;;;5059295;28;20487;-61
2023/04/15 02:00:48;;;;;;;30.33;16.10;;;9.80;99.90;;;;;;5059328;28;20424;-61
2023/04/15 02:03:15;;;;;;;32.83;16.80;;;10.10;99.90;;;;;;5059069;28;20440;-61
2023/04/15 02:05:42;;;;;;;35.80;18.20;;;9.80;99.90;;;;;;5059447;28;20429;-58
2023/04/15 02:08:09;;;;;;;32.80;17.30;;;9.90;99.90;;;;;;5059142;28;20464;-61
2023/04/15 02:10:36;;;;;;;31.00;16.40;;;9.90;99.90;;;;;;5058894;28;20480;-62
2023/04/15 02:13:03;;;;;;;33.57;17.37;;;9.90;99.90;;;;;;5058514;28;20479;-58
2023/04/15 02:15:32;;;;;;;31.40;16.47;;;9.90;99.90;;;;;;5058278;28;20466;-61
2023/04/15 02:18:00;;;;;;;31.83;16.00;;;9.90;99.90;;;;;;5057559;28;20499;-60
2023/04/15 02:20:29;;;;;;;36.07;18.30;;;9.90;99.90;;;;;;5057974;28;20467;-60
2023/04/15 02:22:56;;;;;;;28.03;14.00;;;9.90;99.90;;;;;;5058770;28;20476;-61
2023/04/15 02:25:23;;;;;;;31.10;16.27;;;9.90;99.90;;;;;;5058345;28;20450;-61
2023/04/15 02:27:59;;;;;;;32.13;16.63;;;9.90;99.90;;;;;;5058649;28;20476;-60
2023/04/15 02:30:26;;;;;;;31.30;17.37;;;9.90;99.90;;;;;;5058673;28;20424;-58
2023/04/15 02:32:54;;;;;;;23.10;14.27;;;9.90;99.90;;;;;;5058672;28;20443;-60
2023/04/15 02:35:21;;;;;;;29.83;16.87;;;9.90;99.90;;;;;;5058720;28;20499;-61
2023/04/15 02:37:48;;;;;;;27.50;15.80;;;9.90;99.90;;;;;;5058456;28;20463;-62
2023/04/15 02:40:15;;;;;;;34.40;17.10;;;9.90;99.90;;;;;;5058591;28;20468;-57
2023/04/15 02:42:43;;;;;;;34.00;17.40;;;9.90;99.90;;;;;;5058596;28;20413;-61
2023/04/15 02:45:11;;;;;;;29.47;16.27;;;9.90;99.90;;;;;;5058710;28;20526;-61
2023/04/15 02:47:40;;;;;;;29.33;14.80;;;10.00;99.90;;;;;;5058285;28;20471;-62
2023/04/15 02:50:11;;;;;;;32.27;16.17;;;10.00;99.90;;;;;;5058252;28;20433;-58
2023/04/15 02:52:39;;;;;;;33.50;16.17;;;10.00;99.90;;;;;;5058756;28;20456;-60
2023/04/15 02:55:07;;;;;;;26.13;15.40;;;10.00;99.90;;;;;;5058542;28;20427;-62
2023/04/15 02:57:36;;;;;;;30.73;16.43;;;10.00;99.90;;;;;;5058495;28;20495;-62
2023/04/15 03:00:10;;;;;;;32.90;16.57;;;10.00;99.90;;;;;;5058569;28;20429;-60
2023/04/15 03:02:37;;;;;;;32.90;15.37;;;10.00;99.90;;;;;;5059446;28;20428;-58
2023/04/15 03:05:05;;;;;;;28.63;15.17;;;10.00;99.90;;;;;;5058718;28;20477;-58
2023/04/15 03:07:34;;;;;;;32.20;16.87;;;10.00;99.90;;;;;;5058895;28;20432;-62
2023/04/15 03:10:01;;;;;;;33.47;17.47;;;10.10;99.90;;;;;;5058252;28;20629;-57
2023/04/15 03:12:29;;;;;;;36.00;17.87;;;10.00;99.90;;;;;;5058068;28;20444;-61
2023/04/15 03:14:56;;;;;;;27.70;17.83;;;10.00;99.90;;;;;;5058421;28;20450;-58
2023/04/15 03:17:22;;;;;;;25.67;14.30;;;10.10;99.90;;;;;;5057980;28;20488;-62
2023/04/15 03:19:49;;;;;;;27.73;14.70;;;10.10;99.90;;;;;;5057574;28;20502;-61
2023/04/15 03:22:16;;;;;;;30.23;16.83;;;10.10;99.90;;;;;;5058128;28;20433;-62
2023/04/15 03:24:44;;;;;;;30.00;15.87;;;10.10;99.90;;;;;;5058228;28;20451;-56
2023/04/15 03:27:12;;;;;;;27.30;14.17;;;10.10;99.90;;;;;;5057690;28;20456;-58
2023/04/15 03:29:39;;;;;;;33.73;15.93;;;10.10;99.90;;;;;;5057975;28;20478;-61
2023/04/15 03:32:08;;;;;;;32.23;17.20;;;10.20;99.90;;;;;;5058047;28;20456;-57
2023/04/15 03:34:35;;;;;;;27.20;14.73;;;10.10;99.90;;;;;;5057843;28;20483;-56
2023/04/15 03:37:02;;;;;;;31.57;16.03;;;10.20;99.90;;;;;;5057594;28;20506;-61
2023/04/15 03:39:29;;;;;;;32.90;16.70;;;10.20;99.90;;;;;;5057576;28;20444;-60
2023/04/15 03:41:58;;;;;;;32.03;15.73;;;10.20;99.90;;;;;;5057298;28;20464;-62
2023/04/15 03:44:26;;;;;;;25.87;13.07;;;10.20;99.90;;;;;;5057175;28;20448;-63
2023/04/15 03:46:53;;;;;;;30.20;15.43;;;10.20;99.90;;;;;;5057054;28;20455;-61
2023/04/15 03:49:21;;;;;;;22.00;13.13;;;10.20;99.90;;;;;;5057412;28;20444;-61
2023/04/15 03:51:48;;;;;;;33.37;16.67;;;10.20;99.90;;;;;;5057118;28;20519;-61
2023/04/15 03:54:15;;;;;;;23.50;13.80;;;10.20;99.90;;;;;;5056683;28;20487;-62
2023/04/15 03:56:42;;;;;;;28.10;16.50;;;10.20;99.90;;;;;;5056711;28;20511;-61
2023/04/15 03:59:10;;;;;;;27.50;15.03;;;10.30;99.90;;;;;;5057329;28;20479;-61
2023/04/15 04:01:37;;;;;;;25.03;14.63;;;10.30;99.90;;;;;;5057524;28;20471;-61
2023/04/15 04:04:04;;;;;;;26.67;14.50;;;10.30;99.90;;;;;;5056813;28;20416;-60
2023/04/15 04:06:31;;;;;;;22.10;13.40;;;10.30;99.90;;;;;;5056549;28;20468;-61
2023/04/15 04:08:58;;;;;;;29.03;14.80;;;10.30;99.90;;;;;;5056392;28;20439;-59
2023/04/15 04:11:25;;;;;;;25.17;15.23;;;10.30;99.90;;;;;;5056356;28;20440;-60
2023/04/15 04:13:52;;;;;;;29.07;15.97;;;10.30;99.90;;;;;;5056589;28;20436;-59
2023/04/15 04:16:20;;;;;;;23.13;13.60;;;10.30;99.90;;;;;;5057062;28;20440;-59
2023/04/15 04:18:47;;;;;;;25.23;14.43;;;10.30;99.90;;;;;;5056888;28;20484;-57
2023/04/15 04:21:14;;;;;;;27.00;14.70;;;10.30;99.90;;;;;;5057227;28;20436;-57
2023/04/15 04:23:41;;;;;;;23.63;13.30;;;10.30;99.90;;;;;;5056949;28;20439;-57
2023/04/15 04:26:08;;;;;;;21.80;13.80;;;10.30;99.90;;;;;;5056774;28;20897;-57
2023/04/15 04:28:35;;;;;;;20.17;12.13;;;10.30;99.90;;;;;;5056736;28;20471;-58
2023/04/15 04:31:02;;;;;;;22.97;13.23;;;10.30;99.90;;;;;;5057320;28;20480;-55
2023/04/15 04:33:30;;;;;;;28.73;14.60;;;10.30;99.90;;;;;;5057613;28;20431;-59
2023/04/15 04:35:57;;;;;;;19.50;12.80;;;10.40;99.90;;;;;;5056907;28;20432;-56
2023/04/15 04:38:24;;;;;;;19.93;12.70;;;10.40;99.90;;;;;;5056943;28;20468;-59
2023/04/15 04:40:51;;;;;;;22.10;13.10;;;10.40;99.90;;;;;;5057698;28;20436;-60
2023/04/15 04:43:18;;;;;;;18.50;12.37;;;10.40;99.90;;;;;;5057796;28;20461;-57
2023/04/15 04:45:44;;;;;;;24.80;13.63;;;10.40;99.90;;;;;;5057679;28;20424;-57
2023/04/15 04:48:11;;;;;;;17.00;11.00;;;10.50;99.90;;;;;;5057652;28;20435;-55
2023/04/15 04:50:40;;;;;;;23.13;14.60;;;10.50;99.90;;;;;;5057479;28;20476;-58
2023/04/15 04:53:07;;;;;;;28.33;14.00;;;10.50;99.90;;;;;;5057795;28;20455;-57
2023/04/15 04:55:35;;;;;;;24.33;13.83;;;10.50;99.90;;;;;;5056986;28;20468;-57
2023/04/15 04:58:02;;;;;;;30.93;13.47;;;10.50;99.90;;;;;;5057313;28;20570;-59
2023/04/15 05:00:29;;;;;;;24.90;12.17;;;10.60;99.90;;;;;;5057044;28;20440;-58
2023/04/15 05:02:56;;;;;;;18.80;12.57;;;10.60;99.90;;;;;;5056723;28;20411;-61
2023/04/15 05:05:23;;;;;;;24.37;13.43;;;10.60;99.90;;;;;;5056881;28;20444;-60
2023/04/15 05:07:51;;;;;;;25.97;12.83;;;10.60;99.90;;;;;;5056606;28;20490;-55
2023/04/15 05:10:18;;;;;;;25.77;13.20;;;10.60;99.90;;;;;;5057149;28;20444;-57
2023/04/15 05:12:45;;;;;;;16.50;11.87;;;10.60;99.90;;;;;;5056368;28;20444;-60
2023/04/15 05:15:12;;;;;;;23.03;12.37;;;10.60;99.90;;;;;;5056413;28;20436;-61
2023/04/15 05:17:39;;;;;;;22.33;12.40;;;10.70;99.90;;;;;;5055832;28;20487;-59
2023/04/15 05:20:07;;;;;;;18.87;12.77;;;10.70;99.90;;;;;;5059361;28;20448;-58
2023/04/15 05:22:33;;;;;;;17.87;11.97;;;10.70;99.90;;;;;;5060412;28;20455;-58
2023/04/15 05:25:02;;;;;;;21.53;13.20;;;10.70;99.90;;;;;;5059683;28;20471;-61
2023/04/15 05:27:29;;;;;;;18.77;10.50;;;10.70;99.90;;;;;;5060110;28;20444;-60
2023/04/15 05:29:56;;;;;;;16.60;11.27;;;10.70;99.90;;;;;;5060627;28;20448;-59
2023/04/15 05:32:23;;;;;;;27.17;12.60;;;10.80;99.90;;;;;;5059981;28;20519;-59
2023/04/15 05:34:51;;;;;;;16.80;10.90;;;10.80;99.90;;;;;;5059367;28;20428;-61
2023/04/15 05:37:19;;;;;;;19.57;9.93;;;10.90;99.90;;;;;;5059229;28;20483;-60
2023/04/15 05:39:47;;;;;;;14.23;10.20;;;10.90;99.90;;;;;;5059988;28;20408;-60
2023/04/15 05:42:15;;;;;;;22.77;11.80;;;10.90;99.90;;;;;;5059594;28;20463;-58
2023/04/15 05:44:42;;;;;;;20.97;11.00;;;11.00;99.90;;;;;;5059596;28;20460;-61
2023/04/15 05:47:09;;;;;;;16.40;10.77;;;11.00;99.90;;;;;;5059537;28;20454;-61
2023/04/15 05:49:36;;;;;;;19.30;10.90;;;11.00;99.90;;;;;;5059417;28;20420;-61
2023/04/15 05:52:03;;;;;;;13.90;8.87;;;11.10;99.90;;;;;;5059592;28;20428;-58
2023/04/15 05:54:30;;;;;;;13.40;8.97;;;11.10;99.90;;;;;;5059181;28;20440;-60
2023/04/15 05:56:57;;;;;;;13.47;8.90;;;11.20;99.90;;;;;;5059408;28;20468;-61
2023/04/15 05:59:27;;;;;;;14.00;9.70;;;11.20;99.90;;;;;;5059635;28;20450;-60
2023/04/15 06:01:54;;;;;;;17.07;9.30;;;11.30;99.90;;;;;;5059340;28;20457;-61
2023/04/15 06:04:21;;;;;;;15.50;9.63;;;11.30;99.90;;;;;;5059559;28;20412;-61
2023/04/15 06:06:48;;;;;;;15.13;9.80;;;11.30;99.90;;;;;;5059272;28;20444;-59
2023/04/15 06:09:27;;;;;;;14.10;10.00;;;11.30;99.90;;;;;;5058914;28;20483;-61
2023/04/15 06:11:55;;;;;;;14.83;10.00;;;11.30;99.90;;;;;;5059054;28;20455;-60
2023/04/15 06:14:21;;;;;;;14.30;10.47;;;11.30;99.90;;;;;;5059128;28;20506;-60
2023/04/15 06:16:50;;;;;;;16.40;10.37;;;11.30;99.90;;;;;;5059238;28;20456;-60
2023/04/15 06:19:17;;;;;;;14.90;9.83;;;11.30;99.90;;;;;;5058503;28;20464;-61
2023/04/15 06:21:44;;;;;;;13.83;9.23;;;11.40;99.90;;;;;;5059151;28;20452;-58
2023/04/15 06:24:11;;;;;;;12.40;9.60;;;11.40;99.90;;;;;;5059401;28;20459;-61
2023/04/15 06:26:38;;;;;;;14.03;9.77;;;11.40;99.90;;;;;;5059012;28;20475;-59
2023/04/15 06:29:05;;;;;;;17.57;10.30;;;11.40;99.90;;;;;;5059241;28;20432;-60
2023/04/15 06:31:32;;;;;;;14.83;9.87;;;11.40;99.90;;;;;;5058391;28;20463;-63
2023/04/15 06:34:00;;;;;;;13.63;9.70;;;11.40;99.90;;;;;;5059241;28;20500;-60
2023/04/15 06:36:27;;;;;;;12.97;9.33;;;11.50;99.90;;;;;;5058895;28;20429;-58
2023/04/15 06:38:55;;;;;;;14.53;10.57;;;11.60;99.90;;;;;;5058352;28;20494;-59
2023/04/15 06:41:22;;;;;;;14.80;10.37;;;11.60;99.90;;;;;;5058431;28;20455;-55
2023/04/15 06:43:49;;;;;;;18.47;9.97;;;11.70;99.90;;;;;;5058581;28;20468;-54
2023/04/15 06:46:15;;;;;;;14.67;9.77;;;11.70;99.90;;;;;;5058512;28;20464;-58
2023/04/15 06:48:43;;;;;;;19.60;8.90;;;11.80;99.90;;;;;;5058747;28;20455;-59
2023/04/15 06:51:11;;;;;;;17.70;9.73;;;11.90;99.90;;;;;;5058472;28;20476;-56
2023/04/15 06:53:39;;;;;;;15.90;9.50;;;12.00;99.90;;;;;;5057924;28;20429;-54
2023/04/15 06:56:08;;;;;;;15.83;10.00;;;12.00;99.90;;;;;;5058605;28;20451;-56
2023/04/15 06:58:35;;;;;;;11.07;9.10;;;12.10;99.90;;;;;;5058142;28;20472;-57
2023/04/15 07:01:02;;;;;;;11.50;9.20;;;12.20;99.90;;;;;;5058940;28;20475;-58
2023/04/15 07:03:29;;;;;;;12.53;7.80;;;12.30;99.90;;;;;;5058062;28;20469;-52
2023/04/15 07:05:56;;;;;;;16.80;9.50;;;12.40;99.90;;;;;;5058216;28;20451;-54
2023/04/15 07:08:24;;;;;;;13.00;8.67;;;12.40;99.90;;;;;;5058289;28;20443;-57
2023/04/15 07:10:51;;;;;;;11.00;9.70;;;12.50;99.90;;;;;;5058085;28;20432;-58
2023/04/15 07:13:18;;;;;;;13.67;10.30;;;12.50;99.90;;;;;;5058185;28;20444;-54
2023/04/15 07:15:45;;;;;;;13.57;9.77;;;12.50;99.90;;;;;;5057941;28;20465;-54
2023/04/15 07:18:12;;;;;;;11.80;8.67;;;12.50;99.90;;;;;;5058024;28;20476;-57
2023/04/15 07:20:40;;;;;;;15.10;8.20;;;12.50;99.90;;;;;;5057919;28;20496;-56
2023/04/15 07:23:07;;;;;;;11.20;8.40;;;12.50;99.90;;;;;;5058007;28;20441;-59
2023/04/15 07:25:35;;;;;;;10.87;8.40;;;12.50;99.90;;;;;;5058271;28;20478;-53
2023/04/15 07:28:02;;;;;;;14.03;8.90;;;12.50;99.90;;;;;;5057580;28;20464;-58
2023/04/15 07:30:29;;;;;;;11.43;9.00;;;12.50;99.90;;;;;;5057954;28;20440;-62
2023/04/15 07:32:56;;;;;;;11.50;9.00;;;12.40;99.90;;;;;;5057757;28;20455;-59
2023/04/15 07:35:24;;;;;;;10.07;8.43;;;12.40;99.90;;;;;;5057534;28;20464;-60
2023/04/15 07:37:51;;;;;;;11.30;8.27;;;12.40;99.90;;;;;;5057810;28;20460;-56
2023/04/15 07:40:18;;;;;;;15.17;8.17;;;12.30;99.90;;;;;;5057199;28;20459;-55
2023/04/15 07:42:48;;;;;;;9.70;8.27;;;12.30;99.90;;;;;;5056560;28;20417;-57
2023/04/15 07:45:15;;;;;;;13.50;8.63;;;12.20;99.90;;;;;;5057167;28;20436;-58
2023/04/15 07:47:42;;;;;;;14.47;8.47;;;12.10;99.90;;;;;;5057449;28;20512;-55
2023/04/15 07:50:10;;;;;;;12.23;9.60;;;12.10;99.90;;;;;;5057331;28;20444;-55
2023/04/15 07:52:38;;;;;;;14.83;9.10;;;12.00;99.90;;;;;;5057191;28;20467;-56
2023/04/15 07:55:07;;;;;;;11.10;8.73;;;12.00;99.90;;;;;;5057609;28;20528;-60
2023/04/15 07:57:34;;;;;;;14.57;8.93;;;12.00;99.90;;;;;;5056905;28;20497;-60
2023/04/15 08:00:04;;;;;;;13.43;8.90;;;12.00;99.90;;;;;;5057278;28;20454;-56
2023/04/15 08:02:33;;;;;;;14.53;9.97;;;12.00;99.90;;;;;;5057145;28;20443;-58
2023/04/15 08:05:01;;;;;;;13.67;9.13;;;11.90;99.90;;;;;;5056959;28;20459;-54
2023/04/15 08:07:28;;;;;;;20.80;9.47;;;11.90;99.90;;;;;;5056549;28;20428;-56
2023/04/15 08:09:55;;;;;;;11.20;8.40;;;11.90;99.90;;;;;;5056701;28;20468;-58
2023/04/15 08:12:23;;;;;;;13.90;9.40;;;11.90;99.90;;;;;;5056879;28;20472;-59
2023/04/15 08:14:50;;;;;;;14.17;8.17;;;11.90;99.90;;;;;;5056416;28;20474;-57
2023/04/15 08:17:19;;;;;;;13.67;10.07;;;12.00;99.90;;;;;;5056707;28;20459;-60
2023/04/15 08:19:47;;;;;;;13.40;11.17;;;12.00;99.90;;;;;;5056557;28;20476;-59
2023/04/15 08:22:14;;;;;;;12.10;8.77;;;12.00;99.90;;;;;;5056630;28;20466;-57
2023/04/15 08:24:41;;;;;;;16.27;11.03;;;12.00;99.90;;;;;;5056640;28;20444;-59
2023/04/15 08:27:08;;;;;;;18.97;9.43;;;12.00;99.90;;;;;;5056030;28;20459;-58
2023/04/15 08:29:35;;;;;;;11.90;9.07;;;12.00;99.90;;;;;;5056367;28;20451;-58
2023/04/15 08:32:02;;;;;;;13.93;9.30;;;11.90;99.90;;;;;;5056399;28;20437;-57
2023/04/15 08:34:31;;;;;;;12.70;9.20;;;12.00;99.90;;;;;;5056148;28;20722;-58
2023/04/15 08:36:58;;;;;;;12.53;9.83;;;12.00;99.90;;;;;;5056443;28;20427;-60
2023/04/15 08:39:25;;;;;;;13.10;9.97;;;12.00;99.90;;;;;;5056356;28;20472;-54
2023/04/15 08:41:56;;;;;;;14.90;10.80;;;12.00;99.90;;;;;;5056689;28;20555;-57
2023/04/15 08:44:24;;;;;;;19.10;10.80;;;12.00;99.90;;;;;;5056566;28;20460;-55
2023/04/15 08:46:52;;;;;;;12.80;9.33;;;11.90;99.90;;;;;;5056933;28;20913;-56
2023/04/15 08:49:21;;;;;;;13.00;8.93;;;11.90;99.90;;;;;;5055802;28;20487;-60
2023/04/15 08:51:49;;;;;;;16.93;10.60;;;12.00;99.90;;;;;;5056008;28;20440;-58
2023/04/15 08:54:16;;;;;;;12.53;10.40;;;11.90;99.90;;;;;;5055744;28;20453;-55
2023/04/15 08:56:43;;;;;;;13.83;9.60;;;11.90;99.90;;;;;;5056146;28;20459;-58
2023/04/15 08:59:11;;;;;;;15.57;10.10;;;11.90;99.90;;;;;;5056186;28;20468;-54
2023/04/15 09:01:38;;;;;;;13.97;9.70;;;11.90;99.90;;;;;;5055773;28;20500;-54
2023/04/15 09:04:06;;;;;;;12.93;10.37;;;11.90;99.90;;;;;;5055428;28;20483;-57
2023/04/15 09:06:34;;;;;;;18.57;12.20;;;12.00;99.90;;;;;;5055985;28;20436;-59
2023/04/15 09:09:02;;;;;;;13.97;9.87;;;12.10;99.90;;;;;;5055960;28;20500;-60
2023/04/15 09:11:30;;;;;;;13.30;10.00;;;12.10;99.90;;;;;;5056134;28;20479;-59
2023/04/15 09:13:57;;;;;;;13.70;9.73;;;12.20;99.90;;;;;;5056410;28;20437;-59
2023/04/15 09:16:24;;;;;;;15.03;10.70;;;12.30;99.90;;;;;;5057385;28;20455;-57
2023/04/15 09:18:51;;;;;;;10.97;8.33;;;12.30;99.90;;;;;;5056935;28;20504;-58
2023/04/15 09:21:18;;;;;;;12.30;8.93;;;12.30;99.90;;;;;;5056514;28;20472;-56
2023/04/15 09:23:56;;;;;;;14.90;10.30;;;12.30;99.90;;;;;;5057086;28;20443;-52
2023/04/15 09:26:33;;;;;;;10.93;9.13;;;12.30;99.90;;;;;;5057035;28;20470;-54
2023/04/15 09:29:05;;;;;;;13.83;10.47;;;12.30;99.90;;;;;;5057345;28;20448;-58
2023/04/15 09:31:32;;;;;;;12.00;9.57;;;12.30;99.90;;;;;;5053043;28;20490;-57
2023/04/15 09:34:00;;;;;;;10.90;9.10;;;12.20;99.90;;;;;;5049579;28;20428;-59
2023/04/15 09:36:28;;;;;;;13.90;9.97;;;12.20;99.90;;;;;;5049228;28;20448;-58
2023/04/15 09:38:57;;;;;;;13.00;10.13;;;12.20;99.90;;;;;;5049301;28;20468;-60
2023/04/15 09:41:24;;;;;;;12.37;9.13;;;12.20;99.90;;;;;;5050861;28;20463;-55
2023/04/15 09:43:52;;;;;;;13.23;9.43;;;12.20;99.90;;;;;;5055637;28;20463;-58
2023/04/15 09:46:19;;;;;;;13.90;9.60;;;12.20;99.90;;;;;;5055184;28;20475;-59
2023/04/15 09:48:47;;;;;;;15.43;10.67;;;12.20;99.90;;;;;;5055417;28;20440;-61
2023/04/15 09:51:14;;;;;;;13.57;9.67;;;12.20;99.90;;;;;;5055142;28;20428;-56
2023/04/15 09:53:41;;;;;;;17.83;9.57;;;12.20;99.90;;;;;;5054729;28;20432;-55
2023/04/15 09:56:09;;;;;;;12.50;10.30;;;12.30;99.90;;;;;;5055281;28;20532;-61
2023/04/15 09:58:37;;;;;;;11.77;9.33;;;12.20;99.90;;;;;;5054255;28;20494;-58
2023/04/15 10:01:07;;;;;;;16.60;9.70;;;12.20;99.90;;;;;;5054622;28;20444;-61
2023/04/15 10:03:36;;;;;;;14.43;10.10;;;12.10;99.90;;;;;;5053944;28;20476;-59
2023/04/15 10:06:05;;;;;;;10.93;9.47;;;12.10;99.90;;;;;;5055975;28;20448;-59
2023/04/15 10:08:34;;;;;;;12.50;9.27;;;12.00;99.90;;;;;;5058145;28;20498;-60
2023/04/15 10:11:02;;;;;;;10.13;8.97;;;12.00;99.90;;;;;;5058441;28;20475;-59
2023/04/15 10:13:33;;;;;;;14.70;9.77;;;12.00;99.90;;;;;;5058740;28;20444;-61
2023/04/15 10:16:05;;;;;;;16.02;9.80;;;12.00;99.90;;;;;;5057794;28;20676;-56
2023/04/15 10:18:36;;;;;;;11.20;9.03;;;12.00;99.90;;;;;;5058157;28;20189;-59
2023/04/15 10:21:05;;;;;;;12.10;9.07;;;12.00;99.90;;;;;;5058273;28;20439;-58
2023/04/15 10:23:33;;;;;;;14.00;10.83;;;12.00;99.90;;;;;;5057706;28;20657;-60
2023/04/15 10:26:01;;;;;;;15.10;10.70;;;12.00;99.90;;;;;;5057680;28;20455;-60
2023/04/15 10:28:28;;;;;;;14.40;9.40;;;12.00;99.90;;;;;;5057270;28;20515;-60
2023/04/15 10:30:56;;;;;;;14.80;9.57;;;12.00;99.90;;;;;;5057673;28;20467;-60
2023/04/15 10:33:26;;;;;;;26.23;16.37;;;12.00;99.90;;;;;;5056864;28;20486;-61
2023/04/15 10:35:56;;;;;;;26.60;15.87;;;12.10;99.90;;;;;;5056175;28;20468;-60
2023/04/15 10:38:37;;;;;;;14.97;10.53;;;12.10;99.90;;;;;;5056189;28;20440;-60
2023/04/15 10:41:25;;;;;;;13.70;8.87;;;12.20;99.90;;;;;;5056313;28;20459;-58
2023/04/15 10:43:54;;;;;;;9.50;8.30;;;12.20;99.90;;;;;;5056431;28;20428;-60
2023/04/15 10:46:25;;;;;;;13.50;9.70;;;12.30;99.90;;;;;;5056125;28;20447;-58
2023/04/15 10:48:53;;;;;;;13.13;9.80;;;12.30;99.90;;;;;;5056072;28;20519;-61
2023/04/15 10:51:30;;;;;;;10.63;7.50;;;12.30;99.90;;;;;;5056137;28;20444;-62
2023/04/15 10:53:58;;;;;;;9.80;7.90;;;12.30;99.90;;;;;;5055890;28;20833;-61
2023/04/15 10:56:25;;;;;;;11.30;7.90;;;12.30;99.90;;;;;;5055986;28;20539;-62
2023/04/15 10:58:52;;;;;;;12.27;8.70;;;12.30;99.90;;;;;;5055828;28;20468;-60
2023/04/15 11:01:22;;;;;;;9.83;7.90;;;12.30;99.90;;;;;;5055990;28;20472;-59
2023/04/15 11:03:49;;;;;;;12.17;8.90;;;12.20;99.90;;;;;;5056199;28;20458;-60
2023/04/15 11:06:16;;;;;;;13.23;8.50;;;12.20;99.90;;;;;;5055520;28;20567;-58
2023/04/15 11:08:57;;;;;;;13.67;8.97;;;12.20;99.90;;;;;;5055186;28;20448;-60
2023/04/15 11:11:39;;;;;;;13.87;9.33;;;12.20;99.90;;;;;;5055278;28;20491;-61
2023/04/15 11:14:14;;;;;;;9.30;8.03;;;11.80;99.90;;;;;;5055750;28;20432;-59
2023/04/15 11:16:45;;;;;;;10.37;7.93;;;12.20;99.90;;;;;;5057766;28;20451;-58
2023/04/15 11:19:12;;;;;;;10.30;8.57;;;;;;;;;;5058889;28;20471;-60
2023/04/15 11:21:39;;;;;;;10.43;9.00;;;12.20;99.90;;;;;;5059048;28;20448;-61
2023/04/15 11:24:07;;;;;;;10.90;8.53;;;12.20;99.90;;;;;;5058548;28;20428;-57
2023/04/15 11:26:34;;;;;;;9.73;8.00;;;12.20;99.90;;;;;;5058671;28;20452;-58
2023/04/15 11:29:01;;;;;;;11.20;8.10;;;12.20;99.90;;;;;;5058271;28;20417;-59
2023/04/15 11:31:28;;;;;;;10.60;9.10;;;12.10;99.90;;;;;;5058148;28;20507;-59
2023/04/15 11:33:57;;;;;;;9.70;6.90;;;12.10;99.90;;;;;;5058616;28;20452;-59
2023/04/15 11:36:27;;;;;;;10.50;8.00;;;12.20;99.90;;;;;;5057698;28;20448;-55
2023/04/15 11:38:55;;;;;;;10.80;9.40;;;12.20;99.90;;;;;;5057902;28;20421;-57
2023/04/15 11:41:24;;;;;;;11.27;9.53;;;12.20;99.90;;;;;;5057767;28;20479;-57
2023/04/15 11:43:51;;;;;;;10.43;8.50;;;12.20;99.90;;;;;;5057564;28;20420;-55
2023/04/15 11:46:18;;;;;;;10.57;7.90;;;12.20;99.90;;;;;;5057484;28;20474;-60
2023/04/15 11:48:46;;;;;;;11.03;7.87;;;12.20;99.90;;;;;;5058016;28;20433;-59
2023/04/15 11:51:14;;;;;;;12.40;8.77;;;12.20;99.90;;;;;;5057829;28;20499;-58
2023/04/15 11:53:43;;;;;;;13.40;8.67;;;12.20;99.90;;;;;;5057874;28;20479;-58
2023/04/15 11:56:16;;;;;;;9.27;8.17;;;12.20;99.90;;;;;;5057500;28;20444;-58
2023/04/15 11:58:45;;;;;;;12.03;8.40;;;12.20;99.90;;;;;;5057661;28;20460;-59
2023/04/15 12:01:12;;;;;;;10.27;7.37;;;12.20;99.90;;;;;;5056892;28;20428;-59
2023/04/15 12:03:41;;;;;;;9.57;8.00;;;12.30;99.90;;;;;;5057106;28;20456;-59
2023/04/15 12:06:18;;;;;;;10.07;6.70;;;12.30;99.90;;;;;;5057225;28;20471;-59
2023/04/15 12:09:06;;;;;;;9.07;8.17;;;12.30;99.90;;;;;;5056907;28;20444;-57
2023/04/15 12:11:39;;;;;;;8.43;6.60;;;12.30;99.90;;;;;;5056942;28;20896;-58
2023/04/15 12:14:12;;;;;;;10.03;6.83;;;12.30;99.90;;;;;;5056523;28;20460;-59
2023/04/15 12:16:41;;;;;;;9.80;6.80;;;12.30;99.90;;;;;;5056796;28;20459;-58
2023/04/15 12:19:11;;;;;;;8.93;7.10;;;12.30;99.90;;;;;;5056737;28;20472;-59
2023/04/15 12:21:41;;;;;;;9.17;6.83;;;12.40;99.90;;;;;;5056763;28;20451;-59
2023/04/15 12:24:10;;;;;;;9.93;8.90;;;12.30;99.90;;;;;;5056868;28;20503;-59
2023/04/15 12:26:43;;;;;;;22.03;7.83;;;12.30;99.90;;;;;;5056578;28;20424;-59
2023/04/15 12:29:13;;;;;;;13.10;7.43;;;12.40;99.90;;;;;;5056097;28;20464;-59
2023/04/15 12:31:50;;;;;;;15.87;9.80;;;12.50;99.90;;;;;;5056534;28;20436;-56
2023/04/15 12:34:18;;;;;;;15.30;9.00;;;12.60;99.90;;;;;;5057106;28;20475;-58
2023/04/15 12:36:45;;;;;;;8.70;6.40;;;12.70;99.90;;;;;;5056905;28;20436;-59
2023/04/15 12:39:13;;;;;;;10.67;7.70;;;12.70;99.90;;;;;;5056923;28;20472;-61